Time;durP1;ratioP1;P1;durP2;ratioP2;P2;SDS_P1;SDS_P2;PMS_P1;PMS_P2;Temp;Humidity;BMP_temperature;BMP_pressure;BME280_temperature;BME280_humidity;BME280_pressure;Samples;Min_cycle;Max_cycle;Signal;HPM_P1;HPM_P2
2023/07/26 00:00:39;;;;;;;16.60;8.90;;;;;;;29.09;44.90;93763.63;5054819;28;20445;-77
2023/07/26 00:03:06;;;;;;;17.50;8.63;;;;;;;29.16;45.20;93766.84;5055327;28;20441;-77
2023/07/26 00:05:32;;;;;;;13.33;7.90;;;;;;;29.11;45.81;93764.97;5054972;28;20461;-77
2023/07/26 00:07:59;;;;;;;15.93;8.30;;;;;;;29.17;46.27;93757.66;5055167;28;20442;-78
2023/07/26 00:10:27;;;;;;;13.70;8.00;;;;;;;29.16;45.56;93756.03;5054827;28;20456;-77
2023/07/26 00:12:54;;;;;;;15.77;8.53;;;;;;;29.17;45.43;93753.06;5055276;28;20445;-77
2023/07/26 00:15:23;;;;;;;22.27;8.13;;;;;;;29.16;44.93;93745.22;5054881;28;20442;-77
2023/07/26 00:17:50;;;;;;;12.67;8.00;;;;;;;29.17;45.66;93752.25;5054587;28;20581;-77
2023/07/26 00:20:17;;;;;;;14.73;8.97;;;;;;;29.07;46.56;93746.88;5054582;28;20438;-77
2023/07/26 00:22:44;;;;;;;20.00;9.30;;;;;;;28.97;46.62;93751.22;5054606;28;20448;-77
2023/07/26 00:25:11;;;;;;;12.03;8.10;;;;;;;28.93;47.82;93747.44;5054342;28;20789;-77
2023/07/26 00:27:39;;;;;;;17.07;9.30;;;;;;;29.02;48.27;93749.56;5054693;28;20457;-77
2023/07/26 00:30:07;;;;;;;20.43;9.30;;;;;;;28.74;50.16;93742.81;5054366;28;20948;-77
2023/07/26 00:32:34;;;;;;;22.20;8.60;;;;;;;28.60;50.93;93745.22;5019015;28;20454;-77
2023/07/26 00:35:00;;;;;;;12.80;8.23;;;;;;;28.42;51.32;93734.97;5054745;28;20441;-77
2023/07/26 00:37:27;;;;;;;21.40;9.37;;;;;;;28.41;51.97;93744.97;5054630;28;20441;-77
2023/07/26 00:40:00;;;;;;;13.10;9.10;;;;;;;28.33;51.78;93743.56;5054158;28;20521;-77
2023/07/26 00:42:27;;;;;;;14.73;8.10;;;;;;;28.35;51.76;93730.66;5054215;28;20449;-77
2023/07/26 00:44:57;;;;;;;18.37;9.83;;;;;;;28.36;52.36;93737.66;5054014;28;20442;-78
2023/07/26 00:47:24;;;;;;;10.90;8.23;;;;;;;28.34;52.59;93729.03;5054373;28;20458;-77
2023/07/26 00:49:52;;;;;;;14.37;8.87;;;;;;;28.13;53.41;93730.03;5054296;28;20556;-77
2023/07/26 00:52:25;;;;;;;11.77;8.40;;;;;;;28.10;52.86;93721.69;5054638;28;20454;-77
2023/07/26 00:54:57;;;;;;;13.57;8.90;;;;;;;28.04;53.41;93729.72;5054116;28;20481;-76
2023/07/26 00:57:26;;;;;;;20.53;9.00;;;;;;;28.12;52.78;93725.72;5054040;28;20442;-76
2023/07/26 00:59:55;;;;;;;16.20;8.20;;;;;;;28.00;53.52;93733.22;5054062;28;20441;-78
2023/07/26 01:02:21;;;;;;;18.03;9.00;;;;;;;28.07;53.87;93721.13;5054161;28;20438;-77
2023/07/26 01:04:48;;;;;;;13.67;8.87;;;;;;;28.07;52.43;93720.31;5054110;28;20814;-77
2023/07/26 01:07:24;;;;;;;17.47;9.03;;;;;;;28.02;52.93;93726.50;5019109;28;20484;-77
2023/07/26 01:10:02;;;;;;;16.17;8.17;;;;;;;27.97;53.11;93728.38;5053993;28;20507;-77
2023/07/26 01:12:34;;;;;;;19.63;10.03;;;;;;;28.12;52.83;93730.31;5054013;28;20445;-77
2023/07/26 01:15:08;;;;;;;14.77;8.60;;;;;;;28.11;53.06;93717.91;5054297;28;20441;-77
2023/07/26 01:17:34;;;;;;;11.40;8.17;;;;;;;28.18;52.31;93716.56;5053564;28;20449;-78
2023/07/26 01:20:01;;;;;;;17.90;8.50;;;;;;;28.12;53.06;93720.31;5053579;28;20438;-77
2023/07/26 01:22:29;;;;;;;14.60;7.40;;;;;;;28.07;52.03;93717.63;5053700;28;20453;-77
2023/07/26 01:24:56;;;;;;;11.90;8.07;;;;;;;28.19;51.87;93720.06;5053706;28;20442;-77
2023/07/26 01:27:23;;;;;;;11.93;7.60;;;;;;;28.23;51.66;93708.47;5053673;28;20986;-77
2023/07/26 01:29:54;;;;;;;18.83;9.30;;;;;;;28.32;52.07;93712.28;5053215;28;20457;-77
2023/07/26 01:32:23;;;;;;;21.07;9.47;;;;;;;28.33;51.91;93716.59;5053752;28;20484;-77
2023/07/26 01:34:50;;;;;;;16.70;8.20;;;;;;;28.45;51.58;93712.84;5053520;28;20944;-77
2023/07/26 01:37:20;;;;;;;18.17;8.90;;;;;;;28.47;50.98;93710.69;5052906;28;20445;-77
2023/07/26 01:39:52;;;;;;;19.97;8.30;;;;;;;28.50;51.01;93705.56;5053231;28;20482;-77
2023/07/26 01:42:19;;;;;;;18.07;9.87;;;;;;;28.50;50.83;93710.13;5053820;28;20453;-77
2023/07/26 01:44:46;;;;;;;14.13;8.47;;;;;;;28.58;50.36;93702.31;5053221;28;20450;-77
2023/07/26 01:47:14;;;;;;;17.23;10.97;;;;;;;28.55;50.98;93702.84;5053255;28;20461;-78
2023/07/26 01:49:41;;;;;;;20.13;8.97;;;;;;;28.46;50.01;93703.66;5053204;28;20460;-77
2023/07/26 01:52:08;;;;;;;12.20;7.50;;;;;;;28.37;49.98;93701.50;5053095;28;20446;-77
2023/07/26 01:54:35;;;;;;;16.50;8.80;;;;;;;28.43;50.28;93699.63;5017843;28;20445;-77
2023/07/26 01:57:06;;;;;;;25.23;8.13;;;;;;;28.46;50.23;93703.66;5052797;28;20449;-77
2023/07/26 01:59:33;;;;;;;14.13;8.73;;;;;;;28.51;50.56;93690.16;5052667;28;20892;-77
2023/07/26 02:01:59;;;;;;;17.57;9.70;;;;;;;28.46;50.72;93685.59;5052905;28;21204;-77
2023/07/26 02:04:26;;;;;;;15.80;9.00;;;;;;;28.44;51.20;93697.72;5052945;28;20460;-77
2023/07/26 02:06:53;;;;;;;11.70;10.00;;;;;;;28.25;51.33;93698.25;5052784;28;20483;-77
2023/07/26 02:09:20;;;;;;;25.23;9.13;;;;;;;28.24;52.49;93679.59;5052673;28;20454;-77
2023/07/26 02:11:47;;;;;;;15.77;9.90;;;;;;;28.20;53.85;93679.31;5052430;28;20446;-77
2023/07/26 02:14:17;;;;;;;17.17;8.80;;;;;;;28.14;53.43;93676.91;5052883;28;20804;-78
2023/07/26 02:16:43;;;;;;;19.63;9.27;;;;;;;28.04;54.17;93664.19;5052555;28;20837;-77
2023/07/26 02:19:10;;;;;;;20.10;10.20;;;;;;;27.96;54.04;93664.72;5052605;28;20501;-77
2023/07/26 02:21:37;;;;;;;15.17;9.10;;;;;;;27.94;54.29;93658.78;5052557;28;20537;-78
2023/07/26 02:24:04;;;;;;;12.57;8.10;;;;;;;27.98;53.91;93666.06;5033494;28;20979;-78
2023/07/26 02:26:31;;;;;;;22.10;11.00;;;;;;;27.98;53.72;93666.06;5052699;28;20895;-77
2023/07/26 02:28:58;;;;;;;16.03;8.70;;;;;;;27.93;53.06;93676.03;5052222;28;20476;-77
2023/07/26 02:31:26;;;;;;;19.30;8.43;;;;;;;27.96;52.93;93689.00;5053785;28;20484;-77
2023/07/26 02:33:53;;;;;;;25.10;9.60;;;;;;;28.01;53.02;93683.59;5052747;28;20936;-77
2023/07/26 02:36:20;;;;;;;14.73;8.13;;;;;;;27.97;53.82;93677.13;5051967;28;20664;-78
2023/07/26 02:38:46;;;;;;;15.53;8.53;;;;;;;27.80;54.08;93685.47;5051733;28;20481;-77
2023/07/26 02:41:15;;;;;;;14.20;7.90;;;;;;;27.85;53.66;93673.88;5052083;28;20445;-78
2023/07/26 02:43:42;;;;;;;12.83;9.23;;;;;;;27.78;53.87;93671.44;5052187;28;20445;-77
2023/07/26 02:46:09;;;;;;;11.23;8.53;;;;;;;27.66;53.96;93668.97;5051664;28;20446;-78
2023/07/26 02:48:37;;;;;;;20.40;9.20;;;;;;;27.65;53.75;93667.34;5051031;28;20813;-77
2023/07/26 02:51:04;;;;;;;13.60;8.97;;;;;;;27.59;54.01;93662.19;5051805;28;20442;-77
2023/07/26 02:53:31;;;;;;;14.60;9.17;;;;;;;27.58;54.31;93668.66;5051778;28;20461;-78
2023/07/26 02:55:58;;;;;;;15.10;9.73;;;;;;;27.61;54.21;93677.03;5032991;28;20457;-78
2023/07/26 02:58:24;;;;;;;14.90;8.73;;;;;;;27.70;54.28;93680.03;5051964;28;20481;-77
2023/07/26 03:00:53;;;;;;;16.80;9.50;;;;;;;27.76;54.39;93685.19;5017043;28;20932;-77
2023/07/26 03:03:19;;;;;;;17.17;8.77;;;;;;;27.78;54.32;93698.41;5051851;28;20444;-77
2023/07/26 03:05:48;;;;;;;24.30;10.10;;;;;;;27.84;53.84;93701.91;5016609;28;20450;-77
2023/07/26 03:08:14;;;;;;;19.03;9.10;;;;;;;27.90;54.35;93707.06;5051931;28;20453;-77
2023/07/26 03:10:41;;;;;;;17.20;9.30;;;;;;;27.98;53.52;93711.13;5016516;28;20803;-78
2023/07/26 03:13:08;;;;;;;19.90;8.47;;;;;;;27.98;53.45;93719.19;5016784;28;20452;-77
2023/07/26 03:15:39;;;;;;;13.93;8.67;;;;;;;28.01;54.00;93722.19;5051880;28;20446;-78
2023/07/26 03:18:06;;;;;;;16.60;8.97;;;;;;;27.94;54.55;93727.03;5051504;28;20510;-77
2023/07/26 03:20:33;;;;;;;16.33;8.80;;;;;;;27.92;54.15;93714.88;5051496;28;20445;-77
2023/07/26 03:23:01;;;;;;;17.67;9.00;;;;;;;27.68;55.36;93715.34;5051473;28;20445;-77
2023/07/26 03:25:28;;;;;;;19.90;8.87;;;;;;;27.45;54.18;93713.88;5016490;28;20932;-77
2023/07/26 03:27:55;;;;;;;18.33;11.00;;;;;;;27.51;54.29;93713.91;5051941;28;20457;-77
2023/07/26 03:30:22;;;;;;;16.77;9.37;;;;;;;27.60;54.54;93718.53;5051406;28;20477;-78
2023/07/26 03:32:49;;;;;;;17.90;9.53;;;;;;;27.68;54.77;93719.91;5051427;28;20445;-77
2023/07/26 03:35:16;;;;;;;19.83;9.47;;;;;;;27.73;55.46;93722.63;5051492;28;20441;-77
2023/07/26 03:37:42;;;;;;;14.10;8.63;;;;;;;27.76;55.54;93733.72;5051582;28;20520;-77
2023/07/26 03:40:12;;;;;;;20.70;9.20;;;;;;;27.80;55.34;93734.00;5051497;28;20516;-77
2023/07/26 03:42:39;;;;;;;12.17;9.50;;;;;;;27.84;54.71;93735.09;5051565;28;20446;-77
2023/07/26 03:45:07;;;;;;;16.47;9.37;;;;;;;27.90;54.35;93733.22;5051423;28;20450;-77
2023/07/26 03:47:34;;;;;;;18.00;9.37;;;;;;;27.93;55.07;93735.38;5016582;28;20470;-77
2023/07/26 03:50:01;;;;;;;21.47;9.67;;;;;;;27.94;53.85;93743.19;5051532;28;20674;-77
2023/07/26 03:52:27;;;;;;;17.47;9.43;;;;;;;27.95;53.26;93744.00;5051759;28;20928;-77
2023/07/26 03:54:55;;;;;;;18.00;9.13;;;;;;;27.99;53.04;93747.78;5051499;28;20446;-77
2023/07/26 03:57:23;;;;;;;22.60;10.87;;;;;;;28.01;52.02;93745.63;5051277;28;20928;-77
2023/07/26 03:59:50;;;;;;;21.03;10.03;;;;;;;28.03;50.73;93747.00;5053080;28;21144;-77
2023/07/26 04:02:16;;;;;;;15.30;8.40;;;;;;;28.06;50.87;93751.06;5055275;28;20449;-78
2023/07/26 04:04:43;;;;;;;16.57;9.27;;;;;;;28.20;50.21;93749.47;5055372;28;20442;-77
2023/07/26 04:07:10;;;;;;;22.33;9.73;;;;;;;28.42;49.12;93735.78;5055230;28;20499;-77
2023/07/26 04:09:37;;;;;;;23.43;10.07;;;;;;;28.63;48.17;93736.63;5054706;28;20442;-77
2023/07/26 04:12:04;;;;;;;15.53;8.50;;;;;;;28.85;49.56;93739.84;5054987;28;20932;-77
2023/07/26 04:14:32;;;;;;;18.90;10.57;;;;;;;28.89;48.72;93740.94;5054616;28;20940;-77
2023/07/26 04:16:59;;;;;;;23.93;8.70;;;;;;;28.98;47.95;93725.81;5054715;28;20794;-77
2023/07/26 04:19:26;;;;;;;24.37;9.90;;;;;;;29.02;47.52;93730.66;5054997;28;20485;-77
2023/07/26 04:21:52;;;;;;;16.33;8.73;;;;;;;29.30;48.50;93735.47;5054732;28;20499;-78
2023/07/26 04:24:19;;;;;;;16.80;9.47;;;;;;;29.49;48.79;93739.25;5054595;28;20453;-77
2023/07/26 04:26:46;;;;;;;15.10;8.37;;;;;;;29.71;47.20;93740.78;5054562;28;20460;-77
2023/07/26 04:29:13;;;;;;;15.60;8.10;;;;;;;29.90;46.57;93734.47;5054257;28;20453;-77
2023/07/26 04:31:41;;;;;;;11.93;8.40;;;;;;;30.33;45.71;93736.69;5054371;28;20477;-77
2023/07/26 04:34:09;;;;;;;13.43;9.30;;;;;;;30.60;44.96;93734.38;5019184;28;20449;-78
2023/07/26 04:36:36;;;;;;;11.97;9.13;;;;;;;30.99;44.03;93725.41;5054541;28;20444;-77
2023/07/26 04:39:03;;;;;;;12.50;8.00;;;;;;;31.41;43.94;93730.16;5054313;28;21018;-78
2023/07/26 04:41:29;;;;;;;12.90;7.80;;;;;;;31.71;42.39;93739.88;5054880;28;20445;-78
2023/07/26 04:43:56;;;;;;;16.30;9.43;;;;;;;31.92;41.31;93741.25;5054286;28;20511;-77
2023/07/26 04:46:23;;;;;;;13.70;7.80;;;;;;;32.23;40.62;93746.28;5054371;28;20445;-77
2023/07/26 04:48:51;;;;;;;16.47;8.33;;;;;;;32.63;40.54;93734.84;5035486;28;20449;-77
2023/07/26 04:51:22;;;;;;;17.37;8.30;;;;;;;32.93;39.60;93733.56;5054001;28;20787;-77
2023/07/26 04:53:48;;;;;;;20.33;9.30;;;;;;;33.27;39.41;93732.47;5053911;28;20528;-77
2023/07/26 04:56:16;;;;;;;22.27;8.70;;;;;;;33.54;38.10;93731.69;5053887;28;20943;-77
2023/07/26 04:58:43;;;;;;;17.17;8.60;;;;;;;33.69;36.39;93712.38;5053921;28;20473;-78
2023/07/26 05:01:10;;;;;;;13.10;8.10;;;;;;;33.93;36.46;93717.63;5054143;28;20823;-78
2023/07/26 05:03:38;;;;;;;14.33;8.17;;;;;;;34.39;36.39;93725.63;5054026;28;20445;-78
2023/07/26 05:06:06;;;;;;;20.27;8.83;;;;;;;34.46;36.85;93726.03;5053936;28;20464;-77
2023/07/26 05:08:33;;;;;;;19.93;8.57;;;;;;;34.56;37.14;93710.56;5018511;28;20955;-78
2023/07/26 05:11:01;;;;;;;15.73;9.83;;;;;;;34.67;37.65;93709.19;5053116;28;20446;-78
2023/07/26 05:13:27;;;;;;;14.50;8.90;;;;;;;34.79;37.67;93712.19;5053842;28;20537;-78
2023/07/26 05:15:54;;;;;;;17.10;9.97;;;;;;;35.06;36.99;93703.91;5053678;28;20441;-77
2023/07/26 05:18:23;;;;;;;14.23;9.10;;;;;;;35.48;35.70;93711.84;5053665;28;20441;-77
2023/07/26 05:20:50;;;;;;;16.47;9.03;;;;;;;35.80;35.12;93711.47;5053821;28;20485;-78
2023/07/26 05:23:21;;;;;;;19.10;10.17;;;;;;;35.79;36.22;93706.34;5053337;28;20485;-77
2023/07/26 05:25:48;;;;;;;23.43;9.10;;;;;;;35.50;36.51;93691.28;5053935;28;20540;-78
2023/07/26 05:28:15;;;;;;;21.70;10.27;;;;;;;35.61;36.03;93687.19;5053820;28;20442;-77
2023/07/26 05:30:42;;;;;;;23.40;10.60;;;;;;;35.60;35.52;93696.50;5053277;28;20809;-78
2023/07/26 05:33:10;;;;;;;17.10;9.37;;;;;;;35.91;36.42;93710.13;5053308;28;20441;-78
2023/07/26 05:35:38;;;;;;;17.00;8.77;;;;;;;36.20;37.10;93700.53;5053702;28;21166;-77
2023/07/26 05:38:05;;;;;;;18.20;10.17;;;;;;;36.33;37.08;93701.53;5053239;28;20904;-78
2023/07/26 05:40:33;;;;;;;21.77;9.93;;;;;;;36.18;35.97;93705.53;5053327;28;20492;-78
2023/07/26 05:43:01;;;;;;;20.03;9.07;;;;;;;35.99;37.07;93711.25;5053550;28;20442;-78
2023/07/26 05:45:28;;;;;;;24.17;10.13;;;;;;;36.08;36.33;93735.84;5053057;28;20484;-78
2023/07/26 05:47:56;;;;;;;11.53;10.10;;;;;;;35.63;38.95;93719.63;5053219;28;20453;-77
2023/07/26 05:50:23;;;;;;;16.90;9.47;;;;;;;35.36;39.64;93718.69;5052936;28;20449;-78
2023/07/26 05:52:50;;;;;;;16.60;10.13;;;;;;;35.22;39.96;93717.13;5053050;28;20442;-78
2023/07/26 05:55:17;;;;;;;25.07;10.70;;;;;;;34.77;40.92;93708.97;5053200;28;20450;-77
2023/07/26 05:57:45;;;;;;;19.67;10.47;;;;;;;35.03;40.28;93718.16;5052911;28;20453;-78
2023/07/26 06:00:19;;;;;;;19.50;9.70;;;;;;;35.30;40.06;93705.47;5052839;28;20485;-77
2023/07/26 06:02:46;;;;;;;18.10;9.87;;;;;;;35.21;39.76;93710.88;5052671;28;20438;-78
2023/07/26 06:05:12;;;;;;;21.23;10.57;;;;;;;34.87;39.95;93716.09;5052941;28;20453;-77
2023/07/26 06:07:39;;;;;;;19.80;10.33;;;;;;;34.65;40.58;93725.84;5052485;28;20453;-77
2023/07/26 06:10:06;;;;;;;19.40;11.50;;;;;;;34.47;41.43;93705.84;5052971;28;20453;-77
2023/07/26 06:12:35;;;;;;;17.93;10.40;;;;;;;34.00;41.75;93700.88;5052988;28;20434;-77
2023/07/26 06:15:03;;;;;;;19.23;10.23;;;;;;;33.68;42.41;93718.94;5052706;28;20477;-77
2023/07/26 06:17:30;;;;;;;23.23;11.20;;;;;;;33.48;42.36;93724.75;5052260;28;20440;-77
2023/07/26 06:19:57;;;;;;;17.40;10.53;;;;;;;33.22;43.22;93713.50;5052536;28;20532;-78
2023/07/26 06:22:26;;;;;;;28.00;10.80;;;;;;;32.90;44.63;93708.91;5052298;28;20442;-77
2023/07/26 06:24:53;;;;;;;19.03;9.47;;;;;;;32.94;45.98;93715.34;5052437;28;20438;-78
2023/07/26 06:27:25;;;;;;;23.93;10.70;;;;;;;33.14;44.89;93708.75;5052830;28;20449;-77
2023/07/26 06:29:52;;;;;;;25.07;10.03;;;;;;;33.74;42.88;93715.00;5052628;28;20450;-77
2023/07/26 06:32:20;;;;;;;25.97;10.13;;;;;;;34.17;42.23;93712.75;5060795;28;20454;-77
2023/07/26 06:34:47;;;;;;;15.50;9.53;;;;;;;34.72;40.79;93706.38;5060052;28;20437;-77
2023/07/26 06:37:14;;;;;;;17.90;9.93;;;;;;;35.30;38.63;93706.28;5052348;28;20871;-77
2023/07/26 06:39:40;;;;;;;28.90;10.90;;;;;;;35.53;38.04;93701.59;5052377;28;20879;-77
2023/07/26 06:42:08;;;;;;;27.03;10.53;;;;;;;35.98;37.31;93715.09;5052255;28;20449;-77
2023/07/26 06:44:34;;;;;;;25.80;9.53;;;;;;;36.38;35.62;93726.78;5052267;28;20543;-77
2023/07/26 06:47:01;;;;;;;22.07;9.40;;;;;;;36.81;33.92;93718.63;5017439;28;20449;-77
2023/07/26 06:49:29;;;;;;;21.60;10.37;;;;;;;37.18;31.77;93719.84;5052044;28;20458;-77
2023/07/26 06:51:56;;;;;;;20.03;10.30;;;;;;;37.57;32.90;93720.75;5051917;28;20449;-78
2023/07/26 06:54:23;;;;;;;13.17;8.50;;;;;;;37.83;30.99;93729.69;5016654;28;20449;-78
2023/07/26 06:56:50;;;;;;;16.60;8.33;;;;;;;38.02;28.50;93715.59;5051733;28;20457;-77
2023/07/26 06:59:17;;;;;;;31.63;7.87;;;;;;;37.50;27.81;93724.00;5051572;28;20543;-78
2023/07/26 07:01:44;;;;;;;22.20;8.20;;;;;;;37.54;28.48;93726.88;5051862;28;20446;-78
2023/07/26 07:04:11;;;;;;;11.80;7.77;;;;;;;37.38;28.64;93715.66;5016958;28;20635;-78
2023/07/26 07:06:39;;;;;;;16.43;8.33;;;;;;;36.82;27.39;93700.28;5051574;28;20928;-77
2023/07/26 07:09:06;;;;;;;17.73;7.80;;;;;;;36.80;28.30;93697.88;5016724;28;20450;-77
2023/07/26 07:11:33;;;;;;;13.10;8.37;;;;;;;36.75;27.83;93719.09;5051544;28;20441;-78
2023/07/26 07:14:00;;;;;;;21.33;9.07;;;;;;;36.90;25.47;93713.16;5052027;28;20449;-77
2023/07/26 07:16:27;;;;;;;21.57;9.13;;;;;;;37.05;25.38;93717.31;5052091;28;20457;-78
2023/07/26 07:18:55;;;;;;;25.83;9.13;;;;;;;37.06;26.29;93714.25;5051888;28;20441;-78
2023/07/26 07:21:22;;;;;;;16.27;7.90;;;;;;;37.09;26.28;93712.81;5017295;28;20517;-77
2023/07/26 07:23:50;;;;;;;16.13;9.30;;;;;;;37.30;26.40;93694.59;5051647;28;20458;-77
2023/07/26 07:26:18;;;;;;;14.43;8.60;;;;;;;37.76;26.22;93712.16;5051515;28;20442;-77
2023/07/26 07:28:45;;;;;;;26.50;8.97;;;;;;;37.69;25.27;93711.84;5051588;28;20496;-77
2023/07/26 07:31:11;;;;;;;16.77;7.50;;;;;;;36.94;26.30;93705.91;5051191;28;20469;-77
2023/07/26 07:33:38;;;;;;;20.20;7.90;;;;;;;36.66;26.50;93713.59;5016478;28;21011;-77
2023/07/26 07:36:06;;;;;;;16.40;8.57;;;;;;;36.88;26.90;93720.88;5055657;28;20540;-77
2023/07/26 07:38:33;;;;;;;25.13;9.70;;;;;;;36.81;25.47;93713.16;5055429;28;20503;-77
2023/07/26 07:41:01;;;;;;;14.33;7.30;;;;;;;37.22;25.86;93709.06;5055822;28;20560;-77
2023/07/26 07:43:28;;;;;;;17.80;8.03;;;;;;;37.62;25.00;93717.84;5055460;28;20813;-77
2023/07/26 07:45:55;;;;;;;14.77;8.60;;;;;;;37.75;25.20;93716.84;5055566;28;20442;-78
2023/07/26 07:48:22;;;;;;;16.63;8.23;;;;;;;38.08;24.23;93710.72;5055361;28;20442;-77
2023/07/26 07:50:54;;;;;;;24.20;8.87;;;;;;;38.35;25.04;93723.97;5055320;28;20950;-78
2023/07/26 07:53:21;;;;;;;26.17;7.40;;;;;;;38.39;23.41;93719.41;5055651;28;20445;-78
2023/07/26 07:55:47;;;;;;;22.30;8.10;;;;;;;38.52;24.58;93709.34;5055197;28;20441;-77
2023/07/26 07:58:16;;;;;;;15.00;7.50;;;;;;;38.69;24.48;93708.41;5055096;28;20441;-78
2023/07/26 08:00:43;;;;;;;15.10;7.33;;;;;;;38.85;24.34;93716.84;5054912;28;20851;-77
2023/07/26 08:03:10;;;;;;;24.00;8.90;;;;;;;38.96;23.46;93715.28;5036351;28;20457;-77
2023/07/26 08:05:37;;;;;;;29.43;7.97;;;;;;;39.20;23.46;93714.59;5055016;28;20449;-77
2023/07/26 08:08:06;;;;;;;11.80;7.17;;;;;;;39.34;23.63;93718.66;5055235;28;20468;-77
2023/07/26 08:10:32;;;;;;;21.40;7.67;;;;;;;39.38;23.40;93716.03;5055123;28;20450;-77
2023/07/26 08:12:59;;;;;;;17.60;8.03;;;;;;;39.42;23.24;93716.97;5054955;28;20462;-77
2023/07/26 08:15:32;;;;;;;17.47;7.10;;;;;;;39.51;22.76;93723.19;5055029;28;20446;-77
2023/07/26 08:17:59;;;;;;;18.03;6.80;;;;;;;39.47;22.61;93710.44;5021184;28;20446;-77
2023/07/26 08:20:26;;;;;;;14.77;8.30;;;;;;;39.40;22.56;93711.00;5054793;28;20773;-77
2023/07/26 08:22:53;;;;;;;20.33;7.40;;;;;;;39.34;22.75;93720.59;5055068;28;20495;-77
2023/07/26 08:25:19;;;;;;;14.70;7.33;;;;;;;39.21;22.89;93719.75;5019571;28;20445;-77
2023/07/26 08:27:46;;;;;;;20.37;6.93;;;;;;;38.72;21.34;93702.25;5054841;28;20971;-77
2023/07/26 08:30:13;;;;;;;17.83;7.00;;;;;;;38.51;22.02;93699.50;5054826;28;20823;-77
2023/07/26 08:32:41;;;;;;;16.00;7.00;;;;;;;38.45;21.92;93692.59;5054612;28;20454;-77
2023/07/26 08:35:08;;;;;;;27.03;8.53;;;;;;;38.47;23.10;93701.31;5054535;28;20445;-77
2023/07/26 08:37:35;;;;;;;23.03;7.10;;;;;;;38.62;22.71;93697.19;5019323;28;20453;-77
2023/07/26 08:40:02;;;;;;;18.80;6.97;;;;;;;38.65;23.44;93696.50;5054556;28;20457;-77
2023/07/26 08:42:29;;;;;;;25.43;7.13;;;;;;;38.64;23.03;93687.47;5054784;28;20445;-78
2023/07/26 08:44:55;;;;;;;19.87;8.20;;;;;;;38.70;23.38;93705.34;5054214;28;20441;-77
2023/07/26 08:47:23;;;;;;;24.50;8.53;;;;;;;38.80;23.89;93706.09;5053363;28;20445;-77
2023/07/26 08:49:52;;;;;;;22.40;7.87;;;;;;;38.75;23.10;93693.38;5054855;28;20496;-77
2023/07/26 08:52:19;;;;;;;19.17;7.63;;;;;;;38.58;23.14;93698.97;5054340;28;20442;-77
2023/07/26 08:54:48;;;;;;;28.53;7.20;;;;;;;38.54;23.67;93698.03;5054405;28;21038;-78
2023/07/26 08:57:16;;;;;;;17.57;7.73;;;;;;;38.52;24.06;93690.16;5054051;28;20473;-78
2023/07/26 08:59:43;;;;;;;22.73;7.80;;;;;;;38.43;23.87;93692.13;5035510;28;20851;-77
2023/07/26 09:02:13;;;;;;;20.00;7.80;;;;;;;38.39;23.90;93707.66;5053847;28;20489;-77
2023/07/26 09:04:40;;;;;;;21.10;7.67;;;;;;;38.26;23.59;93682.09;5054029;28;20893;-77
2023/07/26 09:07:08;;;;;;;27.07;8.70;;;;;;;38.20;24.12;93691.66;5054164;28;20446;-78
2023/07/26 09:09:37;;;;;;;20.13;7.37;;;;;;;38.23;23.94;93691.00;5053836;28;20446;-78
2023/07/26 09:12:06;;;;;;;31.20;7.37;;;;;;;38.32;23.84;93705.44;5053841;28;20469;-78
2023/07/26 09:14:34;;;;;;;19.30;8.17;;;;;;;38.21;24.21;93692.47;5019297;28;20959;-77
2023/07/26 09:17:03;;;;;;;15.90;6.83;;;;;;;38.24;23.78;93702.75;5053716;28;20450;-77
2023/07/26 09:19:30;;;;;;;19.33;6.80;;;;;;;38.26;23.98;93693.06;5018813;28;20943;-77
2023/07/26 09:21:59;;;;;;;18.07;8.40;;;;;;;38.20;23.49;93696.34;5053752;28;21015;-77
2023/07/26 09:24:33;;;;;;;27.57;6.83;;;;;;;38.07;23.72;93709.09;5053518;28;20473;-78
2023/07/26 09:27:04;;;;;;;28.97;6.60;;;;;;;37.88;24.33;93706.81;5053785;28;20502;-77
2023/07/26 09:29:31;;;;;;;21.87;6.93;;;;;;;37.78;23.35;93705.22;5053787;28;20450;-77
2023/07/26 09:31:58;;;;;;;19.13;7.17;;;;;;;37.74;23.72;93704.28;5053647;28;20513;-77
2023/07/26 09:34:25;;;;;;;18.00;7.30;;;;;;;37.75;23.64;93694.13;5053563;28;20453;-77
2023/07/26 09:36:54;;;;;;;18.30;6.90;;;;;;;37.79;23.23;93716.97;5053347;28;20446;-77
2023/07/26 09:39:24;;;;;;;16.53;6.10;;;;;;;37.81;22.78;93714.72;5034445;28;20488;-77
2023/07/26 09:42:04;;;;;;;17.03;6.80;;;;;;;37.89;22.59;93697.47;5053587;28;21045;-77
2023/07/26 09:44:31;;;;;;;17.60;7.10;;;;;;;37.94;23.84;93705.50;5053406;28;20514;-77
2023/07/26 09:46:58;;;;;;;14.83;5.80;;;;;;;37.97;24.00;93704.03;5053105;28;20484;-77
2023/07/26 09:49:27;;;;;;;12.40;7.30;;;;;;;38.09;23.71;93699.41;5053197;28;20448;-77
2023/07/26 09:51:57;;;;;;;15.23;6.17;;;;;;;38.04;21.72;93701.56;5053196;28;20481;-77
2023/07/26 09:54:26;;;;;;;12.93;6.13;;;;;;;37.99;23.35;93694.34;5052916;28;20442;-77
2023/07/26 09:56:56;;;;;;;26.70;7.13;;;;;;;38.04;23.02;93701.56;5052363;28;20446;-78
2023/07/26 09:59:26;;;;;;;15.03;7.03;;;;;;;38.07;22.91;93700.88;5052912;28;20442;-77
2023/07/26 10:01:53;;;;;;;17.60;6.40;;;;;;;37.97;21.76;93693.88;5052576;28;21004;-78
2023/07/26 10:04:26;;;;;;;15.90;5.53;;;;;;;37.85;22.07;93692.94;5052846;28;20794;-77
2023/07/26 10:06:56;;;;;;;14.23;6.23;;;;;;;37.78;22.03;93694.28;5052912;28;20453;-77
2023/07/26 10:09:27;;;;;;;13.53;6.33;;;;;;;37.70;22.49;93688.81;5052662;28;20445;-77
2023/07/26 10:11:57;;;;;;;23.90;6.10;;;;;;;37.73;22.60;93683.50;5017408;28;20449;-78
2023/07/26 10:14:26;;;;;;;16.20;6.27;;;;;;;37.68;23.10;93671.91;5052873;28;20450;-77
2023/07/26 10:16:54;;;;;;;16.90;6.97;;;;;;;37.70;23.46;93666.91;5052504;28;20442;-78
2023/07/26 10:19:25;;;;;;;20.37;7.60;;;;;;;37.73;24.28;93663.53;5053160;28;20824;-77
2023/07/26 10:21:53;;;;;;;16.80;6.33;;;;;;;37.76;25.09;93666.41;5053922;28;20484;-78
2023/07/26 10:24:23;;;;;;;18.93;7.23;;;;;;;37.72;23.98;93661.94;5055007;28;20443;-78
2023/07/26 10:26:50;;;;;;;16.40;6.93;;;;;;;37.65;24.23;93659.69;5054714;28;20480;-78
2023/07/26 10:29:20;;;;;;;13.43;6.17;;;;;;;37.61;24.26;93677.91;5017253;28;20442;-78
2023/07/26 10:31:47;;;;;;;16.10;7.47;;;;;;;37.51;24.66;93659.88;5051841;28;20474;-77
2023/07/26 10:34:20;;;;;;;11.60;6.37;;;;;;;37.53;24.63;93670.50;5052236;28;20434;-78
2023/07/26 10:36:48;;;;;;;14.10;5.73;;;;;;;37.28;23.65;93647.56;5052209;28;20955;-78
2023/07/26 10:39:15;;;;;;;20.47;7.47;;;;;;;37.30;24.99;93661.78;5052410;28;20552;-78
2023/07/26 10:41:50;;;;;;;18.23;6.87;;;;;;;37.32;25.01;93670.44;5051964;28;20486;-77
2023/07/26 10:44:17;;;;;;;13.60;6.80;;;;;;;37.34;25.15;93675.59;5052289;28;20448;-77
2023/07/26 10:46:52;;;;;;;16.03;6.53;;;;;;;37.39;24.67;93664.47;5051953;28;20991;-77
2023/07/26 10:49:27;;;;;;;17.87;6.60;;;;;;;37.47;24.88;93655.41;5051964;28;20851;-77
2023/07/26 10:51:58;;;;;;;20.57;7.30;;;;;;;37.50;24.68;93650.06;5052287;28;20494;-77
2023/07/26 10:54:39;;;;;;;20.27;6.30;;;;;;;37.53;25.14;93654.09;5051745;28;20455;-76
2023/07/26 10:57:16;;;;;;;18.10;6.63;;;;;;;37.39;24.48;93650.78;5052122;28;20437;-77
2023/07/26 10:59:56;;;;;;;11.23;5.87;;;;;;;37.29;24.13;93637.44;5051985;28;20445;-77
2023/07/26 11:02:43;;;;;;;13.37;6.70;;;;;;;37.26;25.04;93644.38;5017109;28;20567;-77
2023/07/26 11:05:13;;;;;;;16.30;5.37;;;;;;;37.22;23.10;93640.66;5016423;28;20433;-77
2023/07/26 11:08:07;;;;;;;18.67;7.07;;;;;;;37.21;23.07;93636.31;5051922;28;20481;-77
2023/07/26 11:10:35;;;;;;;21.23;7.07;;;;;;;37.17;24.27;93640.84;4989672;28;20459;-77
2023/07/26 11:13:12;;;;;;;13.40;5.90;;;;;;;36.96;23.22;93637.19;4990068;28;20451;-76
2023/07/26 11:15:41;;;;;;;20.60;7.27;;;;;;;36.91;24.14;93630.78;4990208;28;20459;-76
2023/07/26 11:18:09;;;;;;;12.47;5.90;;;;;;;36.87;23.73;93642.69;4990158;28;20997;-76
2023/07/26 11:20:39;;;;;;;19.97;6.13;;;;;;;36.89;23.39;93643.16;4989943;28;20448;-77
2023/07/26 11:23:19;;;;;;;23.23;6.23;;;;;;;36.89;23.66;93629.50;4990003;28;20840;-77
2023/07/26 11:25:46;;;;;;;19.33;6.77;;;;;;;36.85;23.64;93636.75;4989830;28;20436;-77
2023/07/26 11:28:13;;;;;;;16.77;5.90;;;;;;;36.89;24.41;93638.50;4989883;28;20472;-77